sensor_id;sensor_type;location;lat;lon;timestamp;P1;durP1;ratioP1;P2;durP2;ratioP2
4055;SDS011;2043;52.184;8.690;2023-04-12T00:00:57;15.20;;;5.60;;
4055;SDS011;2043;52.184;8.690;2023-04-12T00:03:23;20.30;;;4.60;;
4055;SDS011;2043;52.184;8.690;2023-04-12T00:05:51;10.90;;;4.43;;
4055;SDS011;2043;52.184;8.690;2023-04-12T00:08:21;11.77;;;4.33;;
4055;SDS011;2043;52.184;8.690;2023-04-12T00:10:58;13.70;;;4.27;;
4055;SDS011;2043;52.184;8.690;2023-04-12T00:13:26;10.43;;;5.00;;
4055;SDS011;2043;52.184;8.690;2023-04-12T00:15:53;11.70;;;4.40;;
4055;SDS011;2043;52.184;8.690;2023-04-12T00:18:20;9.30;;;4.03;;
4055;SDS011;2043;52.184;8.690;2023-04-12T00:20:50;9.60;;;4.13;;
4055;SDS011;2043;52.184;8.690;2023-04-12T00:23:18;12.63;;;5.03;;
4055;SDS011;2043;52.184;8.690;2023-04-12T00:25:45;12.17;;;5.17;;
4055;SDS011;2043;52.184;8.690;2023-04-12T00:28:12;13.13;;;4.33;;
4055;SDS011;2043;52.184;8.690;2023-04-12T00:30:39;9.33;;;3.80;;
4055;SDS011;2043;52.184;8.690;2023-04-12T00:33:07;11.17;;;4.03;;
4055;SDS011;2043;52.184;8.690;2023-04-12T00:35:33;13.37;;;3.90;;
4055;SDS011;2043;52.184;8.690;2023-04-12T00:38:00;10.30;;;3.80;;
4055;SDS011;2043;52.184;8.690;2023-04-12T00:40:28;13.13;;;4.33;;
4055;SDS011;2043;52.184;8.690;2023-04-12T00:42:55;13.27;;;4.40;;
4055;SDS011;2043;52.184;8.690;2023-04-12T00:45:22;10.90;;;4.67;;
4055;SDS011;2043;52.184;8.690;2023-04-12T00:47:49;8.50;;;3.87;;
4055;SDS011;2043;52.184;8.690;2023-04-12T00:50:16;10.27;;;4.07;;
4055;SDS011;2043;52.184;8.690;2023-04-12T00:52:43;8.43;;;4.13;;
4055;SDS011;2043;52.184;8.690;2023-04-12T00:55:10;11.10;;;4.17;;
4055;SDS011;2043;52.184;8.690;2023-04-12T00:57:38;13.80;;;4.40;;
4055;SDS011;2043;52.184;8.690;2023-04-12T01:00:06;10.00;;;3.63;;
4055;SDS011;2043;52.184;8.690;2023-04-12T01:02:43;7.17;;;3.90;;
4055;SDS011;2043;52.184;8.690;2023-04-12T01:05:17;12.10;;;4.10;;
4055;SDS011;2043;52.184;8.690;2023-04-12T01:07:50;8.70;;;4.30;;
4055;SDS011;2043;52.184;8.690;2023-04-12T01:10:45;13.60;;;3.80;;
4055;SDS011;2043;52.184;8.690;2023-04-12T01:13:29;10.03;;;3.60;;
4055;SDS011;2043;52.184;8.690;2023-04-12T01:18:35;11.23;;;3.33;;
4055;SDS011;2043;52.184;8.690;2023-04-12T01:21:09;7.17;;;3.50;;
4055;SDS011;2043;52.184;8.690;2023-04-12T01:26:42;11.83;;;3.80;;
4055;SDS011;2043;52.184;8.690;2023-04-12T01:29:11;10.57;;;3.50;;
4055;SDS011;2043;52.184;8.690;2023-04-12T01:31:48;11.60;;;4.13;;
4055;SDS011;2043;52.184;8.690;2023-04-12T01:34:20;7.43;;;3.37;;
4055;SDS011;2043;52.184;8.690;2023-04-12T01:36:50;11.63;;;4.47;;
4055;SDS011;2043;52.184;8.690;2023-04-12T01:39:18;11.20;;;4.03;;
4055;SDS011;2043;52.184;8.690;2023-04-12T01:41:45;21.33;;;3.90;;
4055;SDS011;2043;52.184;8.690;2023-04-12T01:44:14;12.43;;;4.20;;
4055;SDS011;2043;52.184;8.690;2023-04-12T01:46:42;10.63;;;3.20;;
4055;SDS011;2043;52.184;8.690;2023-04-12T01:49:12;12.87;;;3.80;;
4055;SDS011;2043;52.184;8.690;2023-04-12T01:51:52;5.83;;;3.10;;
4055;SDS011;2043;52.184;8.690;2023-04-12T01:54:30;25.00;;;4.40;;
4055;SDS011;2043;52.184;8.690;2023-04-12T01:57:02;10.70;;;3.70;;
4055;SDS011;2043;52.184;8.690;2023-04-12T01:59:40;9.80;;;3.60;;
4055;SDS011;2043;52.184;8.690;2023-04-12T02:02:08;10.90;;;3.90;;
4055;SDS011;2043;52.184;8.690;2023-04-12T02:04:37;5.27;;;2.80;;
4055;SDS011;2043;52.184;8.690;2023-04-12T02:07:04;7.63;;;2.70;;
4055;SDS011;2043;52.184;8.690;2023-04-12T02:09:37;7.47;;;3.03;;
4055;SDS011;2043;52.184;8.690;2023-04-12T02:12:04;9.53;;;2.93;;
4055;SDS011;2043;52.184;8.690;2023-04-12T02:14:32;8.13;;;3.20;;
4055;SDS011;2043;52.184;8.690;2023-04-12T02:16:59;10.50;;;3.20;;
4055;SDS011;2043;52.184;8.690;2023-04-12T02:19:29;9.63;;;3.23;;
4055;SDS011;2043;52.184;8.690;2023-04-12T02:21:57;13.67;;;3.63;;
4055;SDS011;2043;52.184;8.690;2023-04-12T02:24:24;16.93;;;3.20;;
4055;SDS011;2043;52.184;8.690;2023-04-12T02:26:50;11.40;;;3.80;;
4055;SDS011;2043;52.184;8.690;2023-04-12T02:29:20;15.80;;;3.07;;
4055;SDS011;2043;52.184;8.690;2023-04-12T02:31:46;12.67;;;3.40;;
4055;SDS011;2043;52.184;8.690;2023-04-12T02:34:13;21.40;;;3.90;;
4055;SDS011;2043;52.184;8.690;2023-04-12T02:36:46;12.97;;;3.50;;
4055;SDS011;2043;52.184;8.690;2023-04-12T02:39:14;8.07;;;2.97;;
4055;SDS011;2043;52.184;8.690;2023-04-12T02:41:44;9.30;;;3.30;;
4055;SDS011;2043;52.184;8.690;2023-04-12T02:44:11;14.07;;;5.13;;
4055;SDS011;2043;52.184;8.690;2023-04-12T02:46:38;15.10;;;3.40;;
4055;SDS011;2043;52.184;8.690;2023-04-12T02:49:04;11.63;;;3.13;;
4055;SDS011;2043;52.184;8.690;2023-04-12T02:51:31;9.07;;;3.00;;
4055;SDS011;2043;52.184;8.690;2023-04-12T02:53:58;6.77;;;2.97;;
4055;SDS011;2043;52.184;8.690;2023-04-12T02:56:25;10.97;;;3.13;;
4055;SDS011;2043;52.184;8.690;2023-04-12T02:58:51;7.23;;;3.20;;
4055;SDS011;2043;52.184;8.690;2023-04-12T03:01:18;13.33;;;3.17;;
4055;SDS011;2043;52.184;8.690;2023-04-12T03:03:45;9.50;;;2.90;;
4055;SDS011;2043;52.184;8.690;2023-04-12T03:06:12;11.90;;;3.40;;
4055;SDS011;2043;52.184;8.690;2023-04-12T03:08:38;9.50;;;2.90;;
4055;SDS011;2043;52.184;8.690;2023-04-12T03:11:05;8.57;;;3.20;;
4055;SDS011;2043;52.184;8.690;2023-04-12T03:13:32;12.63;;;3.20;;
4055;SDS011;2043;52.184;8.690;2023-04-12T03:15:59;7.93;;;2.77;;
4055;SDS011;2043;52.184;8.690;2023-04-12T03:18:44;6.87;;;2.90;;
4055;SDS011;2043;52.184;8.690;2023-04-12T03:21:11;7.97;;;2.70;;
4055;SDS011;2043;52.184;8.690;2023-04-12T03:23:38;16.00;;;3.13;;
4055;SDS011;2043;52.184;8.690;2023-04-12T03:26:05;12.40;;;3.10;;
4055;SDS011;2043;52.184;8.690;2023-04-12T03:28:32;8.07;;;2.80;;
4055;SDS011;2043;52.184;8.690;2023-04-12T03:30:59;12.33;;;3.37;;
4055;SDS011;2043;52.184;8.690;2023-04-12T03:33:26;9.70;;;3.10;;
4055;SDS011;2043;52.184;8.690;2023-04-12T03:35:53;10.60;;;3.17;;
4055;SDS011;2043;52.184;8.690;2023-04-12T03:38:21;11.73;;;2.87;;
4055;SDS011;2043;52.184;8.690;2023-04-12T03:40:48;11.60;;;2.93;;
4055;SDS011;2043;52.184;8.690;2023-04-12T03:43:15;8.23;;;2.77;;
4055;SDS011;2043;52.184;8.690;2023-04-12T03:45:42;9.07;;;3.00;;
4055;SDS011;2043;52.184;8.690;2023-04-12T03:48:08;5.60;;;2.60;;
4055;SDS011;2043;52.184;8.690;2023-04-12T03:50:37;11.10;;;2.80;;
4055;SDS011;2043;52.184;8.690;2023-04-12T03:53:10;10.43;;;3.13;;
4055;SDS011;2043;52.184;8.690;2023-04-12T03:55:37;11.13;;;2.80;;
4055;SDS011;2043;52.184;8.690;2023-04-12T03:58:03;8.83;;;3.03;;
4055;SDS011;2043;52.184;8.690;2023-04-12T04:00:30;9.80;;;2.73;;
4055;SDS011;2043;52.184;8.690;2023-04-12T04:02:57;8.93;;;2.63;;
4055;SDS011;2043;52.184;8.690;2023-04-12T04:05:28;8.37;;;3.10;;
4055;SDS011;2043;52.184;8.690;2023-04-12T04:07:56;6.80;;;2.87;;
4055;SDS011;2043;52.184;8.690;2023-04-12T04:10:27;8.43;;;2.90;;
4055;SDS011;2043;52.184;8.690;2023-04-12T04:12:54;10.23;;;3.00;;
4055;SDS011;2043;52.184;8.690;2023-04-12T04:15:21;12.63;;;3.20;;
4055;SDS011;2043;52.184;8.690;2023-04-12T04:17:48;7.97;;;2.53;;
4055;SDS011;2043;52.184;8.690;2023-04-12T04:20:15;11.27;;;2.33;;
4055;SDS011;2043;52.184;8.690;2023-04-12T04:22:43;6.77;;;2.50;;
4055;SDS011;2043;52.184;8.690;2023-04-12T04:25:13;6.43;;;2.43;;
4055;SDS011;2043;52.184;8.690;2023-04-12T04:27:41;9.07;;;2.63;;
4055;SDS011;2043;52.184;8.690;2023-04-12T04:30:10;8.87;;;2.50;;
4055;SDS011;2043;52.184;8.690;2023-04-12T04:32:37;7.13;;;2.80;;
4055;SDS011;2043;52.184;8.690;2023-04-12T04:35:04;11.13;;;2.80;;
4055;SDS011;2043;52.184;8.690;2023-04-12T04:37:32;10.93;;;3.67;;
4055;SDS011;2043;52.184;8.690;2023-04-12T04:40:02;7.87;;;3.00;;
4055;SDS011;2043;52.184;8.690;2023-04-12T04:42:36;8.40;;;2.80;;
4055;SDS011;2043;52.184;8.690;2023-04-12T04:45:08;11.40;;;2.47;;
4055;SDS011;2043;52.184;8.690;2023-04-12T04:47:39;8.30;;;2.70;;
4055;SDS011;2043;52.184;8.690;2023-04-12T04:50:06;14.93;;;3.23;;
4055;SDS011;2043;52.184;8.690;2023-04-12T04:52:33;8.33;;;2.77;;
4055;SDS011;2043;52.184;8.690;2023-04-12T04:55:00;7.20;;;2.63;;
4055;SDS011;2043;52.184;8.690;2023-04-12T04:57:29;5.03;;;2.20;;
4055;SDS011;2043;52.184;8.690;2023-04-12T04:59:56;6.83;;;2.30;;
4055;SDS011;2043;52.184;8.690;2023-04-12T05:02:23;10.60;;;2.47;;
4055;SDS011;2043;52.184;8.690;2023-04-12T05:04:51;6.03;;;2.43;;
4055;SDS011;2043;52.184;8.690;2023-04-12T05:07:21;9.57;;;2.90;;
4055;SDS011;2043;52.184;8.690;2023-04-12T05:09:48;9.27;;;2.60;;
4055;SDS011;2043;52.184;8.690;2023-04-12T05:12:15;8.70;;;2.87;;
4055;SDS011;2043;52.184;8.690;2023-04-12T05:14:42;6.53;;;2.73;;
4055;SDS011;2043;52.184;8.690;2023-04-12T05:17:16;10.67;;;2.67;;
4055;SDS011;2043;52.184;8.690;2023-04-12T05:19:43;7.60;;;2.50;;
4055;SDS011;2043;52.184;8.690;2023-04-12T05:22:10;9.40;;;2.60;;
4055;SDS011;2043;52.184;8.690;2023-04-12T05:24:39;9.27;;;3.27;;
4055;SDS011;2043;52.184;8.690;2023-04-12T05:27:06;7.33;;;2.57;;
4055;SDS011;2043;52.184;8.690;2023-04-12T05:29:32;5.90;;;2.77;;
4055;SDS011;2043;52.184;8.690;2023-04-12T05:31:59;10.63;;;2.70;;
4055;SDS011;2043;52.184;8.690;2023-04-12T05:34:29;7.03;;;2.67;;
4055;SDS011;2043;52.184;8.690;2023-04-12T05:36:56;17.90;;;3.47;;
4055;SDS011;2043;52.184;8.690;2023-04-12T05:39:25;7.17;;;2.70;;
4055;SDS011;2043;52.184;8.690;2023-04-12T05:41:52;6.53;;;2.60;;
4055;SDS011;2043;52.184;8.690;2023-04-12T05:44:19;6.40;;;2.67;;
4055;SDS011;2043;52.184;8.690;2023-04-12T05:46:46;16.17;;;3.50;;
4055;SDS011;2043;52.184;8.690;2023-04-12T05:49:13;9.30;;;3.07;;
4055;SDS011;2043;52.184;8.690;2023-04-12T05:51:39;6.03;;;2.60;;
4055;SDS011;2043;52.184;8.690;2023-04-12T05:54:07;26.30;;;2.93;;
4055;SDS011;2043;52.184;8.690;2023-04-12T05:56:34;9.23;;;3.10;;
4055;SDS011;2043;52.184;8.690;2023-04-12T05:59:01;12.80;;;3.33;;
4055;SDS011;2043;52.184;8.690;2023-04-12T06:01:28;8.07;;;3.07;;
4055;SDS011;2043;52.184;8.690;2023-04-12T06:03:58;37.67;;;3.37;;
4055;SDS011;2043;52.184;8.690;2023-04-12T06:06:27;12.67;;;3.17;;
4055;SDS011;2043;52.184;8.690;2023-04-12T06:08:56;9.43;;;2.50;;
4055;SDS011;2043;52.184;8.690;2023-04-12T06:11:25;5.90;;;2.87;;
4055;SDS011;2043;52.184;8.690;2023-04-12T06:13:52;9.17;;;2.40;;
4055;SDS011;2043;52.184;8.690;2023-04-12T06:16:20;4.63;;;2.27;;
4055;SDS011;2043;52.184;8.690;2023-04-12T06:18:46;5.97;;;2.77;;
4055;SDS011;2043;52.184;8.690;2023-04-12T06:21:13;4.10;;;2.50;;
4055;SDS011;2043;52.184;8.690;2023-04-12T06:23:40;7.90;;;2.43;;
4055;SDS011;2043;52.184;8.690;2023-04-12T06:26:07;5.90;;;2.43;;
4055;SDS011;2043;52.184;8.690;2023-04-12T06:28:34;8.37;;;2.53;;
4055;SDS011;2043;52.184;8.690;2023-04-12T06:31:01;5.37;;;2.20;;
4055;SDS011;2043;52.184;8.690;2023-04-12T06:33:29;6.87;;;2.70;;
4055;SDS011;2043;52.184;8.690;2023-04-12T06:35:56;11.60;;;2.43;;
4055;SDS011;2043;52.184;8.690;2023-04-12T06:38:22;7.60;;;2.40;;
4055;SDS011;2043;52.184;8.690;2023-04-12T06:40:49;4.83;;;2.10;;
4055;SDS011;2043;52.184;8.690;2023-04-12T06:43:17;5.57;;;2.40;;
4055;SDS011;2043;52.184;8.690;2023-04-12T06:45:45;15.33;;;2.50;;
4055;SDS011;2043;52.184;8.690;2023-04-12T06:48:12;9.37;;;2.40;;
4055;SDS011;2043;52.184;8.690;2023-04-12T06:50:38;8.47;;;3.07;;
4055;SDS011;2043;52.184;8.690;2023-04-12T06:53:05;8.27;;;2.83;;
4055;SDS011;2043;52.184;8.690;2023-04-12T06:55:32;7.07;;;2.90;;
4055;SDS011;2043;52.184;8.690;2023-04-12T06:57:59;8.83;;;2.83;;
4055;SDS011;2043;52.184;8.690;2023-04-12T07:00:26;6.90;;;2.43;;
4055;SDS011;2043;52.184;8.690;2023-04-12T07:02:53;7.13;;;2.77;;
4055;SDS011;2043;52.184;8.690;2023-04-12T07:05:20;17.63;;;2.77;;
4055;SDS011;2043;52.184;8.690;2023-04-12T07:07:47;7.43;;;2.60;;
4055;SDS011;2043;52.184;8.690;2023-04-12T07:10:13;6.70;;;2.70;;
4055;SDS011;2043;52.184;8.690;2023-04-12T07:12:40;8.00;;;3.00;;
4055;SDS011;2043;52.184;8.690;2023-04-12T07:15:07;7.20;;;2.40;;
4055;SDS011;2043;52.184;8.690;2023-04-12T07:17:34;7.87;;;3.43;;
4055;SDS011;2043;52.184;8.690;2023-04-12T07:20:01;5.20;;;2.67;;
4055;SDS011;2043;52.184;8.690;2023-04-12T07:22:28;5.90;;;2.63;;
4055;SDS011;2043;52.184;8.690;2023-04-12T07:24:55;6.30;;;2.50;;
4055;SDS011;2043;52.184;8.690;2023-04-12T07:27:22;6.27;;;2.50;;
4055;SDS011;2043;52.184;8.690;2023-04-12T07:29:50;5.47;;;2.50;;
4055;SDS011;2043;52.184;8.690;2023-04-12T07:32:18;4.10;;;2.47;;
4055;SDS011;2043;52.184;8.690;2023-04-12T07:34:45;14.13;;;3.10;;
4055;SDS011;2043;52.184;8.690;2023-04-12T07:37:12;8.30;;;2.90;;
4055;SDS011;2043;52.184;8.690;2023-04-12T07:39:39;7.60;;;2.90;;
4055;SDS011;2043;52.184;8.690;2023-04-12T07:42:06;8.37;;;3.27;;
4055;SDS011;2043;52.184;8.690;2023-04-12T07:44:32;4.97;;;2.70;;
4055;SDS011;2043;52.184;8.690;2023-04-12T07:47:03;5.67;;;3.17;;
4055;SDS011;2043;52.184;8.690;2023-04-12T07:49:30;6.10;;;2.90;;
4055;SDS011;2043;52.184;8.690;2023-04-12T07:51:57;7.80;;;2.93;;
4055;SDS011;2043;52.184;8.690;2023-04-12T07:54:27;7.10;;;3.10;;
4055;SDS011;2043;52.184;8.690;2023-04-12T07:56:57;6.10;;;3.30;;
4055;SDS011;2043;52.184;8.690;2023-04-12T07:59:25;5.70;;;3.00;;
4055;SDS011;2043;52.184;8.690;2023-04-12T08:01:51;3.97;;;2.83;;
4055;SDS011;2043;52.184;8.690;2023-04-12T08:04:18;8.33;;;3.30;;
4055;SDS011;2043;52.184;8.690;2023-04-12T08:06:45;8.00;;;3.87;;
4055;SDS011;2043;52.184;8.690;2023-04-12T08:09:12;8.73;;;3.50;;
4055;SDS011;2043;52.184;8.690;2023-04-12T08:11:39;6.60;;;3.27;;
4055;SDS011;2043;52.184;8.690;2023-04-12T08:14:06;6.00;;;3.23;;
4055;SDS011;2043;52.184;8.690;2023-04-12T08:16:33;7.17;;;3.10;;
4055;SDS011;2043;52.184;8.690;2023-04-12T08:18:59;7.60;;;3.40;;
4055;SDS011;2043;52.184;8.690;2023-04-12T08:21:26;5.87;;;3.50;;
4055;SDS011;2043;52.184;8.690;2023-04-12T08:23:55;5.77;;;3.20;;
4055;SDS011;2043;52.184;8.690;2023-04-12T08:26:22;6.70;;;3.50;;
4055;SDS011;2043;52.184;8.690;2023-04-12T08:28:49;9.10;;;3.30;;
4055;SDS011;2043;52.184;8.690;2023-04-12T08:31:16;4.67;;;3.00;;
4055;SDS011;2043;52.184;8.690;2023-04-12T08:33:43;7.07;;;3.40;;
4055;SDS011;2043;52.184;8.690;2023-04-12T08:36:10;5.10;;;3.27;;
4055;SDS011;2043;52.184;8.690;2023-04-12T08:38:37;6.37;;;3.17;;
4055;SDS011;2043;52.184;8.690;2023-04-12T08:41:11;6.30;;;3.17;;
4055;SDS011;2043;52.184;8.690;2023-04-12T08:43:41;6.47;;;3.30;;
4055;SDS011;2043;52.184;8.690;2023-04-12T08:46:11;8.03;;;3.57;;
4055;SDS011;2043;52.184;8.690;2023-04-12T08:48:41;7.20;;;3.00;;
4055;SDS011;2043;52.184;8.690;2023-04-12T08:51:14;5.90;;;3.53;;
4055;SDS011;2043;52.184;8.690;2023-04-12T08:53:42;8.93;;;3.30;;
4055;SDS011;2043;52.184;8.690;2023-04-12T08:56:10;6.47;;;3.17;;
4055;SDS011;2043;52.184;8.690;2023-04-12T08:58:42;5.00;;;3.60;;
4055;SDS011;2043;52.184;8.690;2023-04-12T09:01:12;4.87;;;3.20;;
4055;SDS011;2043;52.184;8.690;2023-04-12T09:03:42;6.23;;;3.37;;
4055;SDS011;2043;52.184;8.690;2023-04-12T09:06:12;4.60;;;3.13;;
4055;SDS011;2043;52.184;8.690;2023-04-12T09:08:56;7.10;;;3.30;;
4055;SDS011;2043;52.184;8.690;2023-04-12T09:11:25;6.07;;;3.50;;
4055;SDS011;2043;52.184;8.690;2023-04-12T09:13:54;5.27;;;3.10;;
4055;SDS011;2043;52.184;8.690;2023-04-12T09:16:33;8.30;;;3.80;;
4055;SDS011;2043;52.184;8.690;2023-04-12T09:19:00;5.07;;;3.17;;
4055;SDS011;2043;52.184;8.690;2023-04-12T09:21:30;7.43;;;2.60;;
4055;SDS011;2043;52.184;8.690;2023-04-12T09:24:06;4.70;;;2.70;;
4055;SDS011;2043;52.184;8.690;2023-04-12T09:26:40;8.80;;;3.00;;
4055;SDS011;2043;52.184;8.690;2023-04-12T09:29:20;4.00;;;2.30;;
4055;SDS011;2043;52.184;8.690;2023-04-12T09:34:25;5.80;;;2.83;;
4055;SDS011;2043;52.184;8.690;2023-04-12T09:36:53;5.00;;;2.40;;
4055;SDS011;2043;52.184;8.690;2023-04-12T09:39:26;4.27;;;2.40;;
4055;SDS011;2043;52.184;8.690;2023-04-12T09:42:06;9.77;;;2.37;;
4055;SDS011;2043;52.184;8.690;2023-04-12T09:44:54;4.17;;;1.90;;
4055;SDS011;2043;52.184;8.690;2023-04-12T09:47:44;4.03;;;2.43;;
4055;SDS011;2043;52.184;8.690;2023-04-12T09:50:09;4.10;;;1.90;;
4055;SDS011;2043;52.184;8.690;2023-04-12T09:52:49;4.10;;;1.80;;
4055;SDS011;2043;52.184;8.690;2023-04-12T09:55:17;2.90;;;1.70;;
4055;SDS011;2043;52.184;8.690;2023-04-12T09:57:48;2.80;;;1.80;;
4055;SDS011;2043;52.184;8.690;2023-04-12T10:00:17;3.80;;;1.90;;
4055;SDS011;2043;52.184;8.690;2023-04-12T10:02:46;4.30;;;1.90;;
4055;SDS011;2043;52.184;8.690;2023-04-12T10:05:17;6.30;;;2.40;;
4055;SDS011;2043;52.184;8.690;2023-04-12T10:07:46;2.87;;;1.87;;
4055;SDS011;2043;52.184;8.690;2023-04-12T10:10:15;5.50;;;2.00;;
4055;SDS011;2043;52.184;8.690;2023-04-12T10:12:44;4.30;;;1.60;;
4055;SDS011;2043;52.184;8.690;2023-04-12T10:15:12;3.10;;;1.73;;
4055;SDS011;2043;52.184;8.690;2023-04-12T10:20:13;3.20;;;1.83;;
4055;SDS011;2043;52.184;8.690;2023-04-12T10:22:43;4.43;;;2.10;;
4055;SDS011;2043;52.184;8.690;2023-04-12T10:25:13;3.50;;;1.70;;
4055;SDS011;2043;52.184;8.690;2023-04-12T10:27:43;2.83;;;1.70;;
4055;SDS011;2043;52.184;8.690;2023-04-12T10:30:26;2.80;;;1.63;;
4055;SDS011;2043;52.184;8.690;2023-04-12T10:38:44;5.63;;;2.33;;
4055;SDS011;2043;52.184;8.690;2023-04-12T10:41:16;2.87;;;1.70;;
4055;SDS011;2043;52.184;8.690;2023-04-12T10:43:47;5.17;;;1.70;;
4055;SDS011;2043;52.184;8.690;2023-04-12T10:46:45;2.60;;;1.40;;
4055;SDS011;2043;52.184;8.690;2023-04-12T10:49:12;3.07;;;1.63;;
4055;SDS011;2043;52.184;8.690;2023-04-12T10:54:30;4.10;;;1.70;;
4055;SDS011;2043;52.184;8.690;2023-04-12T10:57:05;2.20;;;1.40;;
4055;SDS011;2043;52.184;8.690;2023-04-12T11:02:17;3.70;;;1.70;;
4055;SDS011;2043;52.184;8.690;2023-04-12T11:07:42;2.60;;;1.57;;
4055;SDS011;2043;52.184;8.690;2023-04-12T11:10:16;4.73;;;1.80;;
4055;SDS011;2043;52.184;8.690;2023-04-12T11:12:49;2.47;;;1.53;;
4055;SDS011;2043;52.184;8.690;2023-04-12T11:15:23;3.30;;;1.73;;
4055;SDS011;2043;52.184;8.690;2023-04-12T11:17:52;5.13;;;1.93;;
4055;SDS011;2043;52.184;8.690;2023-04-12T11:20:23;4.60;;;1.80;;
4055;SDS011;2043;52.184;8.690;2023-04-12T11:22:52;4.00;;;2.10;;
4055;SDS011;2043;52.184;8.690;2023-04-12T11:25:19;3.27;;;1.80;;
4055;SDS011;2043;52.184;8.690;2023-04-12T11:27:49;3.00;;;1.90;;
4055;SDS011;2043;52.184;8.690;2023-04-12T11:30:17;2.50;;;1.67;;
4055;SDS011;2043;52.184;8.690;2023-04-12T11:32:45;3.90;;;1.90;;
4055;SDS011;2043;52.184;8.690;2023-04-12T11:35:15;3.93;;;2.00;;
4055;SDS011;2043;52.184;8.690;2023-04-12T11:37:45;3.40;;;2.00;;
4055;SDS011;2043;52.184;8.690;2023-04-12T11:40:12;10.30;;;2.50;;
4055;SDS011;2043;52.184;8.690;2023-04-12T11:42:39;3.80;;;2.40;;
4055;SDS011;2043;52.184;8.690;2023-04-12T11:45:07;3.33;;;2.33;;
4055;SDS011;2043;52.184;8.690;2023-04-12T11:47:44;3.10;;;1.93;;
4055;SDS011;2043;52.184;8.690;2023-04-12T11:50:11;7.00;;;2.30;;
4055;SDS011;2043;52.184;8.690;2023-04-12T11:52:38;5.33;;;1.90;;
4055;SDS011;2043;52.184;8.690;2023-04-12T11:55:06;5.40;;;2.40;;
4055;SDS011;2043;52.184;8.690;2023-04-12T11:57:36;3.90;;;2.30;;
4055;SDS011;2043;52.184;8.690;2023-04-12T12:00:04;3.20;;;2.10;;
4055;SDS011;2043;52.184;8.690;2023-04-12T12:02:32;4.23;;;2.13;;
4055;SDS011;2043;52.184;8.690;2023-04-12T12:05:14;3.90;;;2.10;;
4055;SDS011;2043;52.184;8.690;2023-04-12T12:07:42;4.27;;;2.40;;
4055;SDS011;2043;52.184;8.690;2023-04-12T12:10:09;3.57;;;2.00;;
4055;SDS011;2043;52.184;8.690;2023-04-12T12:12:36;3.77;;;2.13;;
4055;SDS011;2043;52.184;8.690;2023-04-12T12:15:03;3.10;;;1.83;;
4055;SDS011;2043;52.184;8.690;2023-04-12T12:17:30;5.80;;;2.20;;
4055;SDS011;2043;52.184;8.690;2023-04-12T12:20:03;3.40;;;2.03;;
4055;SDS011;2043;52.184;8.690;2023-04-12T12:22:31;3.47;;;1.90;;
4055;SDS011;2043;52.184;8.690;2023-04-12T12:24:59;4.17;;;2.20;;
4055;SDS011;2043;52.184;8.690;2023-04-12T12:27:33;3.30;;;1.90;;
4055;SDS011;2043;52.184;8.690;2023-04-12T12:30:00;6.03;;;2.20;;
4055;SDS011;2043;52.184;8.690;2023-04-12T12:32:33;2.67;;;1.80;;
4055;SDS011;2043;52.184;8.690;2023-04-12T12:35:06;2.90;;;1.90;;
4055;SDS011;2043;52.184;8.690;2023-04-12T12:37:34;3.50;;;2.20;;
4055;SDS011;2043;52.184;8.690;2023-04-12T12:40:08;3.53;;;2.27;;
4055;SDS011;2043;52.184;8.690;2023-04-12T12:42:42;5.23;;;2.53;;
4055;SDS011;2043;52.184;8.690;2023-04-12T12:45:11;3.67;;;2.23;;
4055;SDS011;2043;52.184;8.690;2023-04-12T12:50:18;5.93;;;3.43;;
4055;SDS011;2043;52.184;8.690;2023-04-12T12:52:50;4.00;;;2.27;;
4055;SDS011;2043;52.184;8.690;2023-04-12T12:55:18;5.33;;;3.23;;
4055;SDS011;2043;52.184;8.690;2023-04-12T12:57:46;4.00;;;2.87;;
4055;SDS011;2043;52.184;8.690;2023-04-12T13:00:32;3.40;;;2.40;;
4055;SDS011;2043;52.184;8.690;2023-04-12T13:02:59;3.80;;;2.70;;
4055;SDS011;2043;52.184;8.690;2023-04-12T13:05:26;4.53;;;3.20;;
4055;SDS011;2043;52.184;8.690;2023-04-12T13:07:53;3.60;;;2.30;;
4055;SDS011;2043;52.184;8.690;2023-04-12T13:10:20;4.00;;;2.50;;
4055;SDS011;2043;52.184;8.690;2023-04-12T13:12:47;5.10;;;2.60;;
4055;SDS011;2043;52.184;8.690;2023-04-12T13:15:13;7.07;;;2.43;;
4055;SDS011;2043;52.184;8.690;2023-04-12T13:17:43;4.27;;;2.60;;
4055;SDS011;2043;52.184;8.690;2023-04-12T13:20:10;5.80;;;2.37;;
4055;SDS011;2043;52.184;8.690;2023-04-12T13:22:37;3.53;;;2.60;;
4055;SDS011;2043;52.184;8.690;2023-04-12T13:25:04;3.77;;;2.60;;
4055;SDS011;2043;52.184;8.690;2023-04-12T13:27:31;9.97;;;2.80;;
4055;SDS011;2043;52.184;8.690;2023-04-12T13:29:58;3.97;;;2.47;;
4055;SDS011;2043;52.184;8.690;2023-04-12T13:32:25;3.60;;;2.40;;
4055;SDS011;2043;52.184;8.690;2023-04-12T13:34:52;3.13;;;2.27;;
4055;SDS011;2043;52.184;8.690;2023-04-12T13:37:19;5.07;;;2.90;;
4055;SDS011;2043;52.184;8.690;2023-04-12T13:39:46;5.83;;;3.60;;
4055;SDS011;2043;52.184;8.690;2023-04-12T13:42:13;4.87;;;2.87;;
4055;SDS011;2043;52.184;8.690;2023-04-12T13:44:39;5.70;;;3.80;;
4055;SDS011;2043;52.184;8.690;2023-04-12T13:47:06;5.70;;;3.20;;
4055;SDS011;2043;52.184;8.690;2023-04-12T13:49:33;8.10;;;4.00;;
4055;SDS011;2043;52.184;8.690;2023-04-12T13:52:00;6.00;;;3.53;;
4055;SDS011;2043;52.184;8.690;2023-04-12T13:54:28;11.77;;;4.40;;
4055;SDS011;2043;52.184;8.690;2023-04-12T13:56:55;10.87;;;5.30;;
4055;SDS011;2043;52.184;8.690;2023-04-12T13:59:23;6.70;;;4.10;;
4055;SDS011;2043;52.184;8.690;2023-04-12T14:01:51;14.70;;;6.90;;
4055;SDS011;2043;52.184;8.690;2023-04-12T14:04:18;6.37;;;3.77;;
4055;SDS011;2043;52.184;8.690;2023-04-12T14:06:45;5.00;;;3.30;;
4055;SDS011;2043;52.184;8.690;2023-04-12T14:09:21;6.20;;;3.60;;
4055;SDS011;2043;52.184;8.690;2023-04-12T14:11:56;4.80;;;3.33;;
4055;SDS011;2043;52.184;8.690;2023-04-12T14:14:26;5.23;;;3.40;;
4055;SDS011;2043;52.184;8.690;2023-04-12T14:16:53;6.23;;;3.57;;
4055;SDS011;2043;52.184;8.690;2023-04-12T14:19:24;5.77;;;3.90;;
4055;SDS011;2043;52.184;8.690;2023-04-12T14:21:51;6.17;;;3.93;;
4055;SDS011;2043;52.184;8.690;2023-04-12T14:24:18;5.30;;;3.20;;
4055;SDS011;2043;52.184;8.690;2023-04-12T14:26:46;5.30;;;3.60;;
4055;SDS011;2043;52.184;8.690;2023-04-12T14:29:15;5.90;;;3.67;;
4055;SDS011;2043;52.184;8.690;2023-04-12T14:31:42;5.87;;;3.37;;
4055;SDS011;2043;52.184;8.690;2023-04-12T14:34:09;4.37;;;2.73;;
4055;SDS011;2043;52.184;8.690;2023-04-12T14:36:36;4.07;;;2.70;;
4055;SDS011;2043;52.184;8.690;2023-04-12T14:39:03;3.00;;;1.83;;
4055;SDS011;2043;52.184;8.690;2023-04-12T14:41:32;5.40;;;2.30;;
4055;SDS011;2043;52.184;8.690;2023-04-12T14:43:59;3.50;;;2.30;;
4055;SDS011;2043;52.184;8.690;2023-04-12T14:46:26;3.10;;;2.23;;
4055;SDS011;2043;52.184;8.690;2023-04-12T14:48:53;3.80;;;2.47;;
4055;SDS011;2043;52.184;8.690;2023-04-12T14:51:22;4.10;;;2.70;;
4055;SDS011;2043;52.184;8.690;2023-04-12T14:53:49;5.13;;;3.07;;
4055;SDS011;2043;52.184;8.690;2023-04-12T14:56:20;5.80;;;3.50;;
4055;SDS011;2043;52.184;8.690;2023-04-12T14:58:51;5.23;;;3.43;;
4055;SDS011;2043;52.184;8.690;2023-04-12T15:01:19;5.53;;;4.13;;
4055;SDS011;2043;52.184;8.690;2023-04-12T15:03:49;6.40;;;3.93;;
4055;SDS011;2043;52.184;8.690;2023-04-12T15:06:22;7.30;;;4.20;;
4055;SDS011;2043;52.184;8.690;2023-04-12T15:08:52;5.77;;;4.30;;
4055;SDS011;2043;52.184;8.690;2023-04-12T15:11:20;5.63;;;4.10;;
4055;SDS011;2043;52.184;8.690;2023-04-12T15:13:52;7.30;;;4.70;;
4055;SDS011;2043;52.184;8.690;2023-04-12T15:16:20;13.70;;;5.20;;
4055;SDS011;2043;52.184;8.690;2023-04-12T15:18:47;6.97;;;5.33;;
4055;SDS011;2043;52.184;8.690;2023-04-12T15:21:16;7.23;;;5.20;;
4055;SDS011;2043;52.184;8.690;2023-04-12T15:23:43;8.63;;;6.10;;
4055;SDS011;2043;52.184;8.690;2023-04-12T15:26:10;7.47;;;5.50;;
4055;SDS011;2043;52.184;8.690;2023-04-12T15:28:39;8.43;;;5.97;;
4055;SDS011;2043;52.184;8.690;2023-04-12T15:31:07;7.83;;;6.10;;
4055;SDS011;2043;52.184;8.690;2023-04-12T15:33:34;7.60;;;5.90;;
4055;SDS011;2043;52.184;8.690;2023-04-12T15:36:03;7.90;;;6.40;;
4055;SDS011;2043;52.184;8.690;2023-04-12T15:38:30;8.33;;;6.30;;
4055;SDS011;2043;52.184;8.690;2023-04-12T15:40:58;8.10;;;6.50;;
4055;SDS011;2043;52.184;8.690;2023-04-12T15:43:26;8.70;;;7.20;;
4055;SDS011;2043;52.184;8.690;2023-04-12T15:45:54;10.57;;;7.37;;
4055;SDS011;2043;52.184;8.690;2023-04-12T15:48:22;9.37;;;6.40;;
4055;SDS011;2043;52.184;8.690;2023-04-12T15:50:50;10.50;;;7.10;;